createdAt,value
2018-08-20T00:00:30.845Z,22.25
2018-08-20T00:03:02.874Z,20.75
2018-08-20T00:05:35.468Z,19.50
2018-08-20T00:08:06.398Z,23.00
2018-08-20T00:10:36.053Z,18.75
2018-08-20T00:13:05.551Z,26.50
2018-08-20T00:15:35.341Z,20.25
2018-08-20T00:18:05.842Z,21.50
2018-08-20T00:20:35.589Z,23.00
2018-08-20T00:23:05.469Z,24.25
2018-08-20T00:25:36.713Z,25.50
2018-08-20T00:28:06.495Z,23.25
2018-08-20T00:30:36.381Z,20.00
2018-08-20T00:33:05.994Z,25.50
2018-08-20T00:35:35.984Z,23.25
2018-08-20T00:38:07.399Z,26.25
2018-08-20T00:40:36.933Z,24.75
2018-08-20T00:43:06.499Z,26.00
2018-08-20T00:45:36.492Z,24.25
2018-08-20T00:48:06.170Z,25.00
2018-08-20T00:50:37.809Z,24.00
2018-08-20T00:53:07.284Z,25.50
2018-08-20T00:55:36.780Z,27.75
2018-08-20T00:58:06.567Z,24.75
2018-08-20T01:00:35.712Z,23.25
2018-08-20T01:03:05.965Z,25.75
2018-08-20T01:05:36.743Z,24.75
2018-08-20T01:08:05.916Z,22.25
2018-08-20T01:10:35.662Z,20.50
2018-08-20T01:13:04.892Z,20.75
2018-08-20T01:15:37.217Z,20.00
2018-08-20T01:18:07.685Z,19.75
2018-08-20T01:20:37.158Z,23.75
2018-08-20T01:23:06.473Z,25.00
2018-08-20T01:25:36.661Z,23.75
2018-08-20T01:28:06.720Z,23.00
2018-08-20T01:30:36.625Z,21.00
2018-08-20T01:33:11.128Z,21.75
2018-08-20T01:35:40.366Z,24.25
2018-08-20T01:38:09.533Z,21.00
2018-08-20T01:40:38.863Z,21.00
2018-08-20T01:43:08.374Z,22.00
2018-08-20T01:45:38.123Z,19.25
2018-08-20T01:48:07.859Z,22.75
2018-08-20T01:50:37.550Z,20.25
2018-08-20T01:53:07.120Z,20.00
2018-08-20T01:55:37.490Z,19.00
2018-08-20T01:58:07.252Z,22.00
2018-08-20T02:00:39.078Z,22.00
2018-08-20T02:03:09.013Z,22.00
2018-08-20T02:05:38.419Z,21.50
2018-08-20T02:08:07.976Z,20.75
2018-08-20T02:10:37.531Z,24.25
2018-08-20T02:13:06.724Z,19.25
2018-08-20T02:15:36.660Z,21.25
2018-08-20T02:20:46.884Z,22.00
2018-08-20T02:23:16.519Z,18.00
2018-08-20T02:25:47.275Z,20.50
2018-08-20T02:28:17.333Z,20.00
2018-08-20T02:30:47.005Z,20.50
2018-08-20T02:33:16.695Z,22.75
2018-08-20T02:35:47.293Z,22.00
2018-08-20T02:40:56.238Z,20.50
2018-08-20T02:43:25.668Z,22.00
2018-08-20T02:45:56.458Z,20.25
2018-08-20T02:48:25.668Z,19.50
2018-08-20T02:50:56.652Z,22.25
2018-08-20T02:53:31.948Z,22.00
2018-08-20T02:56:01.648Z,19.00
2018-08-20T02:58:34.045Z,18.00
2018-08-20T03:01:04.305Z,19.75
2018-08-20T03:03:36.522Z,17.75
2018-08-20T03:06:10.858Z,21.75
2018-08-20T03:08:40.283Z,24.50
2018-08-20T03:11:10.895Z,19.50
2018-08-20T03:13:40.683Z,23.50
2018-08-20T03:16:10.716Z,21.50
2018-08-20T03:18:40.739Z,25.75
2018-08-20T03:21:11.289Z,21.00
2018-08-20T03:23:42.269Z,22.00
2018-08-20T03:26:15.486Z,16.75
2018-08-20T03:28:45.547Z,19.75
2018-08-20T03:31:16.383Z,18.00
2018-08-20T03:33:48.195Z,20.00
2018-08-20T03:36:20.500Z,20.75
2018-08-20T03:38:50.430Z,22.00
2018-08-20T03:41:19.847Z,16.75
2018-08-20T03:43:50.140Z,19.25
2018-08-20T03:46:19.947Z,20.50
2018-08-20T03:48:49.448Z,17.50
2018-08-20T03:51:19.441Z,20.75
2018-08-20T03:53:49.151Z,21.25
2018-08-20T03:56:18.858Z,19.75
2018-08-20T03:58:49.496Z,22.00
2018-08-20T04:01:20.640Z,15.25
2018-08-20T04:03:50.487Z,17.00
2018-08-20T04:06:24.934Z,16.25
2018-08-20T04:08:54.623Z,14.75
2018-08-20T04:11:24.706Z,17.50
2018-08-20T04:13:54.902Z,17.75
2018-08-20T04:16:25.532Z,18.00
2018-08-20T04:18:59.577Z,15.50
2018-08-20T04:21:29.422Z,20.25
2018-08-20T04:23:58.890Z,18.50
2018-08-20T04:26:28.723Z,17.50
2018-08-20T04:28:58.589Z,17.25
2018-08-20T04:31:37.090Z,18.75
2018-08-20T04:34:06.446Z,18.25
2018-08-20T04:36:38.443Z,16.25
2018-08-20T04:39:10.109Z,19.50
2018-08-20T04:41:40.708Z,16.00
2018-08-20T04:44:11.631Z,16.25
2018-08-20T04:46:42.482Z,17.75
2018-08-20T04:49:11.950Z,16.25
2018-08-20T04:51:42.070Z,18.75
2018-08-20T04:54:11.963Z,16.50
2018-08-20T04:56:41.360Z,15.25
2018-08-20T04:59:12.078Z,18.25
2018-08-20T05:01:42.709Z,12.00
2018-08-20T05:04:12.233Z,12.00
2018-08-20T05:06:42.261Z,13.00
2018-08-20T05:09:13.188Z,14.75
2018-08-20T05:11:46.622Z,20.75
2018-08-20T05:14:17.033Z,14.25
2018-08-20T05:16:46.554Z,16.75
2018-08-20T05:19:18.001Z,16.50
2018-08-20T05:21:48.278Z,10.75
2018-08-20T05:24:17.907Z,11.00
2018-08-20T05:26:48.342Z,13.00
2018-08-20T05:29:37.221Z,11.00
2018-08-20T05:32:13.329Z,8.25
2018-08-20T05:34:43.014Z,9.75
2018-08-20T05:37:13.819Z,10.25
2018-08-20T05:39:43.415Z,11.50
2018-08-20T05:42:13.368Z,9.00
2018-08-20T05:44:43.261Z,10.50
2018-08-20T05:47:13.141Z,12.75
2018-08-20T05:49:42.592Z,9.75
2018-08-20T05:52:12.397Z,11.00
2018-08-20T05:54:44.661Z,10.25
2018-08-20T05:57:14.296Z,11.00
2018-08-20T05:59:44.212Z,12.50
2018-08-20T06:02:16.342Z,10.75
2018-08-20T06:04:47.529Z,14.25
2018-08-20T06:07:18.505Z,11.25
2018-08-20T06:09:49.794Z,10.00
2018-08-20T06:12:21.286Z,12.50
2018-08-20T06:14:52.489Z,10.75
2018-08-20T06:17:23.750Z,14.25
2018-08-20T06:19:54.283Z,12.25
2018-08-20T06:22:24.283Z,13.50
2018-08-20T06:27:45.439Z,11.25
2018-08-20T06:30:21.874Z,11.50
2018-08-20T06:32:55.586Z,13.00
2018-08-20T06:35:32.519Z,12.50
2018-08-20T06:38:08.291Z,14.75
2018-08-20T06:43:30.352Z,14.00
2018-08-20T06:46:02.262Z,14.25
2018-08-20T06:48:33.674Z,14.25
2018-08-20T06:51:02.969Z,12.50
2018-08-20T06:53:36.213Z,14.00
2018-08-20T06:56:13.866Z,15.00
2018-08-20T06:58:47.715Z,14.00
2018-08-20T07:04:28.384Z,13.25
2018-08-20T07:07:04.065Z,17.50
2018-08-20T07:09:37.549Z,13.50
2018-08-20T07:12:08.392Z,13.25
2018-08-20T07:14:47.782Z,17.75
2018-08-20T07:17:19.977Z,17.75
2018-08-20T07:19:51.600Z,22.75
2018-08-20T07:22:22.679Z,14.25
2018-08-20T07:24:54.526Z,17.25
2018-08-20T07:27:33.560Z,15.25
2018-08-20T07:32:52.830Z,23.25
2018-08-20T07:35:24.285Z,16.00
2018-08-20T07:37:53.958Z,16.00
2018-08-20T07:40:26.894Z,19.25
2018-08-20T07:42:58.280Z,18.75
2018-08-20T07:45:34.479Z,17.00
2018-08-20T07:48:19.775Z,16.50
2018-08-20T07:51:04.952Z,18.00
2018-08-20T07:53:38.698Z,19.25
2018-08-20T07:56:09.769Z,21.25
2018-08-20T07:58:40.863Z,19.75
2018-08-20T08:01:16.069Z,22.50
2018-08-20T08:06:33.594Z,19.00
2018-08-20T08:09:09.537Z,25.00
2018-08-20T08:11:42.158Z,26.25
2018-08-20T08:14:14.982Z,24.25
2018-08-20T08:16:45.867Z,21.75
2018-08-20T08:19:19.534Z,25.75
2018-08-20T08:21:50.954Z,25.00
2018-08-20T08:24:20.160Z,22.50
2018-08-20T08:26:50.681Z,25.50
2018-08-20T08:29:21.689Z,20.25
2018-08-20T08:31:52.501Z,22.50
2018-08-20T08:34:25.121Z,18.00
2018-08-20T08:36:54.712Z,26.50
2018-08-20T08:41:46.783Z,26.75
2018-08-20T08:44:17.153Z,24.25
2018-08-20T08:46:48.410Z,27.25
2018-08-20T08:49:18.450Z,24.00
2018-08-20T08:51:48.027Z,28.00
2018-08-20T08:54:18.340Z,25.25
2018-08-20T08:56:51.301Z,19.75
2018-08-20T08:59:21.952Z,25.50
2018-08-20T09:01:52.216Z,25.75
2018-08-20T09:04:23.354Z,21.75
2018-08-20T09:06:53.633Z,22.50
2018-08-20T09:09:24.007Z,26.25
2018-08-20T09:11:55.423Z,25.75
2018-08-20T09:14:28.942Z,22.50
2018-08-20T09:17:01.368Z,22.25
2018-08-20T09:19:33.622Z,22.00
2018-08-20T09:22:03.305Z,24.25
2018-08-20T09:24:35.461Z,23.50
2018-08-20T09:27:05.095Z,19.75
2018-08-20T09:29:34.552Z,21.75
2018-08-20T09:32:06.521Z,18.75
2018-08-20T09:34:36.228Z,23.00
2018-08-20T09:37:06.084Z,21.50
2018-08-20T09:39:38.794Z,20.75
2018-08-20T09:42:10.256Z,20.50
2018-08-20T09:44:40.207Z,22.00
2018-08-20T09:47:14.638Z,24.25
2018-08-20T09:49:47.890Z,25.75
2018-08-20T09:52:22.149Z,30.75
2018-08-20T09:54:52.670Z,22.75
2018-08-20T09:57:30.516Z,22.00
2018-08-20T10:03:08.441Z,24.75
2018-08-20T10:05:39.554Z,22.75
2018-08-20T10:08:14.742Z,22.25
2018-08-20T10:11:03.662Z,27.50
2018-08-20T10:13:34.527Z,23.50
2018-08-20T10:16:04.548Z,21.50
2018-08-20T10:18:50.262Z,20.00
2018-08-20T10:21:19.709Z,26.00
2018-08-20T10:23:49.999Z,21.75
2018-08-20T10:26:27.450Z,25.25
2018-08-20T10:29:13.195Z,23.75
2018-08-20T10:31:42.784Z,24.50
2018-08-20T10:34:12.762Z,23.25
2018-08-20T10:36:48.134Z,24.00
2018-08-20T10:39:17.701Z,27.75
2018-08-20T10:44:21.378Z,23.00
2018-08-20T10:46:51.564Z,23.75
2018-08-20T10:49:22.494Z,29.75
2018-08-20T10:51:52.877Z,33.00
2018-08-20T10:54:22.407Z,30.50
2018-08-20T10:56:51.671Z,27.25
2018-08-20T10:59:22.191Z,22.75
2018-08-20T11:01:51.852Z,28.50
2018-08-20T11:04:23.851Z,27.00
2018-08-20T11:06:54.401Z,26.75
2018-08-20T11:09:23.696Z,33.00
2018-08-20T11:11:54.063Z,28.00
2018-08-20T11:14:23.533Z,26.00
2018-08-20T11:16:53.683Z,30.25
2018-08-20T11:19:33.962Z,31.50
2018-08-20T11:22:05.449Z,28.50
2018-08-20T11:24:35.296Z,26.00
2018-08-20T11:27:07.188Z,28.25
2018-08-20T11:29:40.690Z,25.75
2018-08-20T11:32:10.163Z,25.25
2018-08-20T11:34:40.404Z,30.25
2018-08-20T11:37:10.601Z,23.75
2018-08-20T11:39:42.087Z,29.50
2018-08-20T11:42:11.474Z,26.75
2018-08-20T11:44:42.839Z,26.00
2018-08-20T11:47:13.590Z,27.50
2018-08-20T11:49:43.114Z,26.25
2018-08-20T11:52:12.895Z,29.50
2018-08-20T11:54:43.367Z,25.50
2018-08-20T11:57:15.343Z,25.75
2018-08-20T11:59:49.525Z,23.25
2018-08-20T12:02:21.611Z,28.25
2018-08-20T12:04:51.973Z,27.75
2018-08-20T12:07:27.681Z,25.00
2018-08-20T12:10:02.495Z,30.50
2018-08-20T12:12:43.056Z,23.25
2018-08-20T12:15:17.993Z,23.00
2018-08-20T12:17:50.932Z,24.75
2018-08-20T12:20:21.166Z,21.25
2018-08-20T12:22:52.039Z,24.75
2018-08-20T12:25:22.510Z,24.00
2018-08-20T12:27:55.432Z,24.50
2018-08-20T12:30:26.653Z,18.50
2018-08-20T12:32:57.345Z,24.00
2018-08-20T12:35:28.029Z,22.00
2018-08-20T12:37:58.996Z,30.50
2018-08-20T12:40:29.341Z,22.75
2018-08-20T12:43:09.760Z,22.25
2018-08-20T12:45:40.699Z,25.00
2018-08-20T12:48:15.949Z,19.75
2018-08-20T12:50:46.177Z,19.00
2018-08-20T12:53:16.219Z,21.50
2018-08-20T12:55:48.107Z,25.00
2018-08-20T12:58:19.558Z,23.75
2018-08-20T13:04:17.127Z,22.50
2018-08-20T13:06:51.737Z,23.00
2018-08-20T13:09:24.950Z,21.75
2018-08-20T13:11:58.603Z,20.50
2018-08-20T13:14:40.737Z,22.25
2018-08-20T13:17:12.506Z,24.50
2018-08-20T13:19:49.494Z,28.75
2018-08-20T13:22:29.727Z,25.25
2018-08-20T13:25:01.885Z,25.00
2018-08-20T13:27:32.441Z,33.75
2018-08-20T13:30:05.997Z,34.25
2018-08-20T13:32:37.818Z,31.00
2018-08-20T13:35:10.257Z,35.00
2018-08-20T13:37:41.198Z,35.25
2018-08-20T13:40:10.925Z,29.00
2018-08-20T13:42:40.704Z,31.00
2018-08-20T13:45:16.388Z,33.75
2018-08-20T13:47:46.966Z,35.25
2018-08-20T13:50:18.887Z,33.75
2018-08-20T13:52:49.274Z,27.75
2018-08-20T13:55:24.129Z,29.00
2018-08-20T13:57:55.735Z,28.00
2018-08-20T14:00:26.882Z,27.75
2018-08-20T14:02:56.756Z,27.75
2018-08-20T14:05:26.980Z,26.25
2018-08-20T14:07:58.101Z,25.00
2018-08-20T14:10:28.930Z,27.25
2018-08-20T14:12:59.312Z,23.75
2018-08-20T14:15:30.492Z,23.75
2018-08-20T14:18:08.170Z,19.00
2018-08-20T14:20:40.976Z,20.00
2018-08-20T14:23:11.261Z,20.75
2018-08-20T14:25:41.196Z,24.00
2018-08-20T14:28:14.602Z,23.75
2018-08-20T14:30:46.011Z,20.50
2018-08-20T14:33:16.597Z,20.25
2018-08-20T14:35:48.883Z,23.50
2018-08-20T14:38:20.409Z,24.50
2018-08-20T14:40:54.378Z,26.00
2018-08-20T14:43:24.460Z,24.50
2018-08-20T14:46:00.550Z,21.25
2018-08-20T14:48:38.478Z,21.50
2018-08-20T14:51:08.211Z,18.75
2018-08-20T14:53:37.610Z,22.00
2018-08-20T14:56:08.294Z,20.00
2018-08-20T14:58:42.005Z,18.00
2018-08-20T15:01:11.832Z,18.50
2018-08-20T15:03:44.204Z,19.00
2018-08-20T15:06:14.723Z,17.75
2018-08-20T15:08:44.184Z,17.25
2018-08-20T15:11:15.739Z,19.25
2018-08-20T15:13:47.017Z,16.25
2018-08-20T15:16:19.759Z,16.50
2018-08-20T15:18:50.903Z,16.50
2018-08-20T15:21:20.677Z,14.75
2018-08-20T15:23:50.467Z,17.00
2018-08-20T15:26:21.904Z,19.00
2018-08-20T15:28:52.899Z,14.75
2018-08-20T15:31:25.263Z,16.00
2018-08-20T15:34:00.249Z,18.50
2018-08-20T15:36:30.011Z,18.50
2018-08-20T15:39:02.850Z,18.00
2018-08-20T15:41:34.579Z,17.75
2018-08-20T15:44:29.414Z,15.50
2018-08-20T15:47:00.904Z,15.25
2018-08-20T15:49:33.552Z,14.75
2018-08-20T15:52:04.504Z,14.75
2018-08-20T15:54:35.521Z,14.75
2018-08-20T15:57:07.620Z,13.75
2018-08-20T15:59:42.813Z,14.75
2018-08-20T16:02:15.249Z,14.50
2018-08-20T16:04:51.706Z,15.75
2018-08-20T16:07:34.582Z,15.75
2018-08-20T16:10:04.778Z,15.25
2018-08-20T16:12:35.153Z,16.50
2018-08-20T16:17:52.717Z,14.50
2018-08-20T16:23:18.417Z,18.00
2018-08-20T16:25:52.041Z,15.75
2018-08-20T16:28:25.740Z,14.25
2018-08-20T16:31:44.311Z,16.75
2018-08-20T16:34:20.258Z,16.25
2018-08-20T16:36:56.566Z,18.50
2018-08-20T16:39:27.688Z,22.00
2018-08-20T16:41:58.128Z,16.75
2018-08-20T16:44:34.154Z,18.25
2018-08-20T16:47:18.396Z,19.25
2018-08-20T16:49:52.676Z,17.50
2018-08-20T16:52:25.345Z,15.50
2018-08-20T16:55:20.639Z,17.50
2018-08-20T16:58:00.867Z,13.25
2018-08-20T17:00:36.340Z,13.00
2018-08-20T17:03:14.070Z,12.50
2018-08-20T17:05:52.830Z,14.00
2018-08-20T17:08:36.271Z,15.50
2018-08-20T17:11:06.585Z,16.00
2018-08-20T17:13:45.744Z,14.75
2018-08-20T17:16:28.238Z,13.75
2018-08-20T17:19:14.372Z,13.50
2018-08-20T17:24:29.403Z,11.00
2018-08-20T17:27:02.838Z,12.00
2018-08-20T17:29:40.424Z,10.50
2018-08-20T17:32:16.037Z,9.75
2018-08-20T17:34:48.450Z,9.00
2018-08-20T17:37:20.508Z,8.50
2018-08-20T17:40:05.390Z,8.50
2018-08-20T17:42:38.033Z,6.75
2018-08-20T17:45:14.086Z,8.25
2018-08-20T17:47:49.724Z,8.25
2018-08-20T17:50:30.760Z,9.75
2018-08-20T17:53:13.881Z,8.50
2018-08-20T17:55:45.510Z,7.00
2018-08-20T17:58:17.551Z,7.50
2018-08-20T18:00:54.858Z,5.50
2018-08-20T18:03:31.410Z,7.25
2018-08-20T18:06:07.668Z,9.50
2018-08-20T18:08:39.150Z,7.50
2018-08-20T18:11:11.649Z,8.00
2018-08-20T18:13:53.662Z,9.50
2018-08-20T18:16:29.036Z,8.25
2018-08-20T18:19:04.745Z,8.25
2018-08-20T18:21:38.693Z,10.50
2018-08-20T18:24:13.564Z,10.00
2018-08-20T18:26:55.728Z,9.25
2018-08-20T18:29:25.675Z,10.25
2018-08-20T18:32:00.028Z,9.75
2018-08-20T18:34:30.243Z,13.75
2018-08-20T18:37:12.538Z,12.00
2018-08-20T18:39:52.079Z,14.25
2018-08-20T18:42:22.552Z,16.25
2018-08-20T18:44:53.238Z,14.25
2018-08-20T18:47:23.737Z,15.75
2018-08-20T18:50:08.640Z,14.25
2018-08-20T18:52:41.254Z,14.00
2018-08-20T18:55:17.569Z,16.50
2018-08-20T18:57:49.047Z,14.50
2018-08-20T19:00:21.716Z,14.50
2018-08-20T19:03:01.518Z,15.50
2018-08-20T19:05:43.242Z,14.50
2018-08-20T19:08:26.690Z,13.50
2018-08-20T19:11:01.091Z,13.50
2018-08-20T19:13:34.868Z,16.25
2018-08-20T19:17:13.927Z,15.00
2018-08-20T19:19:50.136Z,14.75
2018-08-20T19:22:30.096Z,14.50
2018-08-20T19:25:05.528Z,14.25
2018-08-20T19:27:36.359Z,14.50
2018-08-20T19:36:00.493Z,13.50
2018-08-20T19:38:31.293Z,15.75
2018-08-20T19:41:14.460Z,15.00
2018-08-20T19:43:48.645Z,13.75
2018-08-20T19:46:29.418Z,13.50
2018-08-20T19:49:09.967Z,12.25
2018-08-20T19:51:41.146Z,12.00
2018-08-20T19:54:14.021Z,12.00
2018-08-20T19:56:54.448Z,13.50
2018-08-20T19:59:33.008Z,13.75
2018-08-20T20:02:06.894Z,13.00
2018-08-20T20:04:37.340Z,10.50
2018-08-20T20:07:09.134Z,12.50
2018-08-20T20:09:40.758Z,12.75
2018-08-20T20:12:11.840Z,11.25
2018-08-20T20:14:46.247Z,13.50
2018-08-20T20:17:19.336Z,10.00
2018-08-20T20:19:51.543Z,11.75
2018-08-20T20:22:22.230Z,11.00
2018-08-20T20:24:53.905Z,10.25
2018-08-20T20:27:25.927Z,9.25
2018-08-20T20:29:57.354Z,11.00
2018-08-20T20:32:29.243Z,10.50
2018-08-20T20:35:00.783Z,9.50
2018-08-20T20:37:30.161Z,10.00
2018-08-20T20:40:13.460Z,7.50
2018-08-20T20:42:48.043Z,10.50
2018-08-20T20:45:19.631Z,11.25
2018-08-20T20:47:51.068Z,12.00
2018-08-20T20:52:56.515Z,9.25
2018-08-20T20:55:27.364Z,10.25
2018-08-20T20:58:01.870Z,10.50
2018-08-20T21:00:32.175Z,11.50
2018-08-20T21:05:44.220Z,9.75
2018-08-20T21:08:14.692Z,10.50
2018-08-20T21:10:51.286Z,9.50
2018-08-20T21:13:23.272Z,9.00
2018-08-20T21:15:59.344Z,12.25
2018-08-20T21:18:30.472Z,11.50
2018-08-20T21:21:02.675Z,11.25
2018-08-20T21:23:41.331Z,9.75
2018-08-20T21:29:12.820Z,10.00
2018-08-20T21:31:53.573Z,10.00
2018-08-20T21:34:32.852Z,9.75
2018-08-20T21:37:06.454Z,8.50
2018-08-20T21:39:41.073Z,8.00
2018-08-20T21:42:15.437Z,8.50
2018-08-20T21:44:59.115Z,9.75
2018-08-20T21:47:35.867Z,8.50
2018-08-20T21:50:06.205Z,8.75
2018-08-20T21:52:36.655Z,8.50
2018-08-20T21:55:07.612Z,8.75
2018-08-20T21:57:45.193Z,8.00
2018-08-20T22:03:02.903Z,8.00
2018-08-20T22:05:34.618Z,9.00
2018-08-20T22:08:09.559Z,9.50
2018-08-20T22:10:39.761Z,9.50
2018-08-20T22:13:09.978Z,9.75
2018-08-20T22:15:58.068Z,6.75
2018-08-20T22:18:31.548Z,9.25
2018-08-20T22:21:01.456Z,8.75
2018-08-20T22:23:39.085Z,9.75
2018-08-20T22:26:00.470Z,9.50
2018-08-20T22:28:30.398Z,9.00
2018-08-20T22:31:01.347Z,7.75
2018-08-20T22:33:34.688Z,9.50
2018-08-20T22:36:04.525Z,9.25
2018-08-20T22:39:05.366Z,10.25
2018-08-20T22:41:36.103Z,9.50
2018-08-20T22:44:06.680Z,8.00
2018-08-20T22:46:37.173Z,9.75
2018-08-20T22:49:06.563Z,9.00
2018-08-20T22:51:37.980Z,9.50
2018-08-20T22:54:11.702Z,10.00
2018-08-20T22:56:43.332Z,9.50
2018-08-20T22:59:15.061Z,7.50
2018-08-20T23:01:44.960Z,10.00
2018-08-20T23:04:17.467Z,9.00
2018-08-20T23:07:01.631Z,8.75
2018-08-20T23:09:57.799Z,7.75
2018-08-20T23:12:47.041Z,9.00
2018-08-20T23:15:33.104Z,10.00
2018-08-20T23:18:02.944Z,9.00
2018-08-20T23:20:33.120Z,8.00
2018-08-20T23:23:02.841Z,8.00
2018-08-20T23:25:37.366Z,8.00
2018-08-20T23:28:07.582Z,9.50
2018-08-20T23:30:37.541Z,9.75
2018-08-20T23:33:08.471Z,11.00
2018-08-20T23:35:40.637Z,10.00
2018-08-20T23:38:11.376Z,8.00
2018-08-20T23:40:43.084Z,10.00
2018-08-20T23:43:15.605Z,9.50
2018-08-20T23:45:45.152Z,8.75
2018-08-20T23:48:16.067Z,9.50
2018-08-20T23:50:56.722Z,9.00
2018-08-20T23:53:26.936Z,11.50
2018-08-20T23:55:56.636Z,7.50
2018-08-20T23:58:26.134Z,9.25
